Time;durP1;ratioP1;P1;durP2;ratioP2;P2;SDS_P1;SDS_P2;PMS_P1;PMS_P2;Temp;Humidity;BMP_temperature;BMP_pressure;BME280_temperature;BME280_humidity;BME280_pressure;Samples;Min_cycle;Max_cycle;Signal;HPM_P1;HPM_P2
2022/04/27 00:01:11;;;;;;;12.80;8.30;;;6.00;89.70;;;;;;5067498;28;21590;-71
2022/04/27 00:03:36;;;;;;;8.93;6.45;;;6.00;89.70;;;;;;5069414;28;20634;-70
2022/04/27 00:06:02;;;;;;;10.85;8.02;;;6.00;89.80;;;;;;5062241;28;20047;-70
2022/04/27 00:08:28;;;;;;;14.20;10.02;;;6.00;89.80;;;;;;5065931;28;20028;-70
2022/04/27 00:10:53;;;;;;;18.13;12.45;;;6.00;89.70;;;;;;5070029;28;20021;-70
2022/04/27 00:13:19;;;;;;;22.27;15.77;;;6.00;88.90;;;;;;5069658;28;20100;-69
2022/04/27 00:15:45;;;;;;;20.35;14.48;;;6.00;88.60;;;;;;5068335;28;20103;-70
2022/04/27 00:18:10;;;;;;;19.58;13.57;;;6.00;87.60;;;;;;5066115;28;20040;-70
2022/04/27 00:20:36;;;;;;;20.88;14.48;;;6.00;87.80;;;;;;5069735;28;20414;-70
2022/04/27 00:23:02;;;;;;;28.75;17.48;;;6.00;87.30;;;;;;5070833;28;20081;-70
2022/04/27 00:25:28;;;;;;;28.30;17.80;;;6.00;87.10;;;;;;5070590;28;20131;-70
2022/04/27 00:27:53;;;;;;;25.25;15.52;;;6.00;86.80;;;;;;5069466;28;20032;-70
2022/04/27 00:30:19;;;;;;;18.27;13.23;;;6.00;86.80;;;;;;5066938;28;20414;-69
2022/04/27 00:32:45;;;;;;;14.15;10.35;;;6.10;85.70;;;;;;5072654;28;20464;-69
2022/04/27 00:35:11;;;;;;;23.23;15.73;;;6.10;85.30;;;;;;5073300;28;20428;-71
2022/04/27 00:37:37;;;;;;;26.48;16.33;;;6.10;86.30;;;;;;5072108;28;20028;-71
2022/04/27 00:40:03;;;;;;;17.50;13.73;;;6.10;86.20;;;;;;5069749;28;20032;-71
2022/04/27 00:42:29;;;;;;;19.23;12.73;;;6.00;85.80;;;;;;5070131;28;20040;-70
2022/04/27 00:44:55;;;;;;;21.48;14.13;;;6.10;85.40;;;;;;5074174;28;20029;-69
2022/04/27 00:47:20;;;;;;;19.60;13.35;;;6.10;85.90;;;;;;5073353;28;20376;-68
2022/04/27 00:49:48;;;;;;;19.63;14.73;;;6.10;85.40;;;;;;5067248;28;20127;-69
2022/04/27 00:52:17;;;;;;;17.15;12.05;;;6.10;85.30;;;;;;5073243;28;20016;-68
2022/04/27 00:54:46;;;;;;;21.40;14.18;;;6.10;85.10;;;;;;5071261;28;20038;-69
2022/04/27 00:57:12;;;;;;;24.65;15.80;;;6.10;84.70;;;;;;5068040;28;20031;-69
2022/04/27 00:59:39;;;;;;;24.60;16.63;;;6.10;85.30;;;;;;5090366;28;20437;-69
2022/04/27 01:02:05;;;;;;;21.98;14.18;;;6.00;84.90;;;;;;5091445;28;20080;-69
2022/04/27 01:04:35;;;;;;;23.23;14.90;;;6.10;85.00;;;;;;5088191;28;20020;-68
2022/04/27 01:07:02;;;;;;;17.58;12.77;;;6.00;85.30;;;;;;5093684;28;20428;-68
2022/04/27 01:09:32;;;;;;;16.65;11.85;;;6.10;85.10;;;;;;5088559;28;20037;-68
2022/04/27 01:11:59;;;;;;;14.95;11.15;;;6.00;85.20;;;;;;5074960;28;20098;-67
2022/04/27 01:14:25;;;;;;;21.30;14.05;;;6.00;85.50;;;;;;5090618;28;20027;-69
2022/04/27 01:16:56;;;;;;;21.98;14.05;;;6.00;85.80;;;;;;5073882;28;20024;-70
2022/04/27 01:19:26;;;;;;;17.83;12.88;;;5.90;85.60;;;;;;5073618;28;20420;-70
2022/04/27 01:21:54;;;;;;;16.65;12.35;;;5.90;85.20;;;;;;5092338;28;20444;-69
2022/04/27 01:24:22;;;;;;;21.08;14.25;;;5.80;85.80;;;;;;5091636;28;20379;-69
2022/04/27 01:26:53;;;;;;;18.58;12.75;;;5.80;85.30;;;;;;5076680;28;20032;-70
2022/04/27 01:29:23;;;;;;;20.88;14.13;;;5.80;85.40;;;;;;5077417;28;20114;-69
2022/04/27 01:31:49;;;;;;;20.90;15.02;;;5.80;85.40;;;;;;5089103;28;20055;-69
2022/04/27 01:34:15;;;;;;;22.73;15.18;;;5.80;84.90;;;;;;5086993;28;20419;-69
2022/04/27 01:36:41;;;;;;;23.83;15.50;;;5.90;84.90;;;;;;5091795;28;20020;-69
2022/04/27 01:39:07;;;;;;;21.02;14.75;;;5.90;84.70;;;;;;5075894;28;20082;-70
2022/04/27 01:41:37;;;;;;;27.63;16.95;;;5.90;85.20;;;;;;5089702;28;20063;-68
2022/04/27 01:44:04;;;;;;;25.90;16.30;;;5.90;85.10;;;;;;5090264;28;20407;-69
2022/04/27 01:46:32;;;;;;;19.85;14.20;;;5.80;84.90;;;;;;5090258;28;20050;-68
2022/04/27 01:48:58;;;;;;;23.30;14.98;;;5.80;84.50;;;;;;5071093;28;20321;-68
2022/04/27 01:54:17;;;;;;;23.25;14.98;;;5.90;84.30;;;;;;5087935;28;20181;-69
2022/04/27 01:56:49;;;;;;;20.42;13.98;;;5.80;84.50;;;;;;5087383;28;20028;-69
2022/04/27 01:59:16;;;;;;;15.00;11.25;;;5.80;84.90;;;;;;5090463;28;20127;-69
2022/04/27 02:01:43;;;;;;;19.55;13.18;;;5.80;84.10;;;;;;5072358;28;20324;-68
2022/04/27 02:04:09;;;;;;;18.52;13.10;;;5.80;85.00;;;;;;5064140;28;20036;-68
2022/04/27 02:06:35;;;;;;;20.58;14.00;;;5.80;84.60;;;;;;5073972;28;20028;-68
2022/04/27 02:09:05;;;;;;;18.80;14.00;;;5.80;84.50;;;;;;5076029;28;20313;-68
2022/04/27 02:11:32;;;;;;;20.10;14.07;;;5.80;84.90;;;;;;5075984;28;20038;-68
2022/04/27 02:13:57;;;;;;;18.27;12.68;;;5.80;85.20;;;;;;5074317;28;20115;-68
2022/04/27 02:16:23;;;;;;;16.20;12.77;;;5.80;85.10;;;;;;5081049;28;20455;-68
2022/04/27 02:18:49;;;;;;;15.18;11.40;;;5.80;85.00;;;;;;5058326;28;20447;-68
2022/04/27 02:21:16;;;;;;;19.73;13.68;;;5.80;85.10;;;;;;5082576;28;20032;-69
2022/04/27 02:23:42;;;;;;;17.27;13.15;;;5.80;84.80;;;;;;5082853;28;20439;-68
2022/04/27 02:26:08;;;;;;;19.00;14.13;;;5.70;85.50;;;;;;5092756;28;20028;-68
2022/04/27 02:28:36;;;;;;;25.63;16.50;;;5.70;85.60;;;;;;5076038;28;20487;-68
2022/04/27 02:31:02;;;;;;;24.10;16.38;;;5.70;86.00;;;;;;5085821;28;20405;-68
2022/04/27 02:33:31;;;;;;;31.23;19.73;;;5.60;85.80;;;;;;5088197;28;20039;-68
2022/04/27 02:35:57;;;;;;;18.23;14.93;;;5.60;85.90;;;;;;5082118;28;20032;-67
2022/04/27 02:38:23;;;;;;;27.17;17.70;;;5.50;85.70;;;;;;5086692;28;20303;-68
2022/04/27 02:40:49;;;;;;;19.48;14.70;;;5.50;86.10;;;;;;5082249;28;20032;-68
2022/04/27 02:43:15;;;;;;;22.55;16.23;;;5.50;85.30;;;;;;5075212;28;20415;-69
2022/04/27 02:45:41;;;;;;;20.42;14.98;;;5.50;85.70;;;;;;5092898;28;20061;-67
2022/04/27 02:48:07;;;;;;;22.88;15.90;;;5.60;84.60;;;;;;5078369;28;20032;-67
2022/04/27 02:53:18;;;;;;;74.80;44.70;;;5.50;85.60;;;;;;5088214;28;20340;-68
2022/04/27 02:55:45;;;;;;;74.38;47.72;;;5.40;85.70;;;;;;5094023;28;20107;-68
2022/04/27 02:58:10;;;;;;;46.40;27.42;;;5.40;85.10;;;;;;5076835;28;20654;-68
2022/04/27 03:00:36;;;;;;;118.35;62.22;;;5.40;85.30;;;;;;5075514;28;20082;-68
2022/04/27 03:03:02;;;;;;;31.20;20.88;;;5.40;85.20;;;;;;5069989;28;20040;-68
2022/04/27 03:05:28;;;;;;;23.60;15.90;;;5.40;84.60;;;;;;5086343;28;20314;-68
2022/04/27 03:07:55;;;;;;;20.15;15.05;;;5.40;84.30;;;;;;5089767;28;20032;-68
2022/04/27 03:10:21;;;;;;;21.48;15.23;;;5.40;84.70;;;;;;5083446;28;20470;-69
2022/04/27 03:12:47;;;;;;;21.55;15.25;;;5.50;84.30;;;;;;5088928;28;20103;-68
2022/04/27 03:15:12;;;;;;;18.33;14.32;;;5.50;85.00;;;;;;5074061;28;20027;-68
2022/04/27 03:17:38;;;;;;;25.48;16.70;;;5.50;84.50;;;;;;5091441;28;20069;-68
2022/04/27 03:20:04;;;;;;;34.25;20.73;;;5.50;85.40;;;;;;5090106;28;20073;-68
2022/04/27 03:22:30;;;;;;;34.08;19.02;;;5.50;85.70;;;;;;5084250;28;20027;-68
2022/04/27 03:24:56;;;;;;;23.58;15.43;;;5.50;85.60;;;;;;5088673;28;20348;-68
2022/04/27 03:27:21;;;;;;;22.00;14.95;;;5.40;86.10;;;;;;5087861;28;20107;-68
2022/04/27 03:29:47;;;;;;;19.33;13.77;;;5.30;85.60;;;;;;5092220;28;20063;-68
2022/04/27 03:32:13;;;;;;;20.90;15.20;;;5.30;85.00;;;;;;5085631;28;20077;-67
2022/04/27 03:34:39;;;;;;;24.60;17.55;;;5.40;84.10;;;;;;5090309;28;20102;-68
2022/04/27 03:37:04;;;;;;;25.23;17.20;;;5.40;83.90;;;;;;5085894;28;20486;-68
2022/04/27 03:39:30;;;;;;;29.73;19.88;;;5.50;84.50;;;;;;5086633;28;20149;-68
2022/04/27 03:41:57;;;;;;;22.83;16.42;;;5.50;84.50;;;;;;5090767;28;20039;-68
2022/04/27 03:44:23;;;;;;;39.83;22.42;;;5.50;84.50;;;;;;5081790;28;21588;-67
2022/04/27 03:46:51;;;;;;;27.02;18.65;;;5.50;84.70;;;;;;5079103;28;20028;-67
2022/04/27 03:49:17;;;;;;;35.35;22.05;;;5.50;84.20;;;;;;5083352;28;20017;-68
2022/04/27 03:51:43;;;;;;;33.33;21.05;;;5.50;84.80;;;;;;5074529;28;20119;-68
2022/04/27 03:54:09;;;;;;;23.05;16.35;;;5.40;84.60;;;;;;5090563;28;20049;-68
2022/04/27 03:56:34;;;;;;;42.35;22.88;;;5.40;84.50;;;;;;5091237;28;20024;-68
2022/04/27 03:59:00;;;;;;;34.53;21.98;;;5.50;84.20;;;;;;5088193;28;20044;-67
2022/04/27 04:01:25;;;;;;;34.13;21.42;;;5.50;83.50;;;;;;5086849;28;20417;-67
2022/04/27 04:03:51;;;;;;;32.72;20.20;;;5.50;84.10;;;;;;5071034;28;20054;-66
2022/04/27 04:06:17;;;;;;;33.30;20.52;;;5.50;84.00;;;;;;5088794;28;20049;-67
2022/04/27 04:08:42;;;;;;;35.38;20.45;;;5.50;83.80;;;;;;5088612;28;20036;-69
2022/04/27 04:11:09;;;;;;;22.38;15.88;;;5.50;83.60;;;;;;5088648;28;20099;-67
2022/04/27 04:13:34;;;;;;;22.95;16.23;;;5.60;83.00;;;;;;5090659;28;20101;-69
2022/04/27 04:16:00;;;;;;;18.75;14.43;;;5.70;82.40;;;;;;5092233;28;20461;-69
2022/04/27 04:18:26;;;;;;;25.42;17.77;;;5.70;83.20;;;;;;5085382;28;20078;-69
2022/04/27 04:20:52;;;;;;;28.15;18.83;;;5.70;84.20;;;;;;5089772;28;20356;-68
2022/04/27 04:23:20;;;;;;;23.77;16.20;;;5.70;84.20;;;;;;5092112;28;20032;-69
2022/04/27 04:28:30;;;;;;;;;;;5.70;83.70;;;;;;5090950;28;20105;-68
2022/04/27 04:31:00;;;;;;;30.70;19.33;;;5.70;83.80;;;;;;5093749;28;20301;-67
2022/04/27 04:33:26;;;;;;;24.77;16.92;;;5.70;83.60;;;;;;5085005;28;20023;-68
2022/04/27 04:35:53;;;;;;;23.45;16.35;;;5.70;83.80;;;;;;5093011;28;20404;-67
2022/04/27 04:38:19;;;;;;;35.47;20.15;;;5.80;83.80;;;;;;5088343;28;20119;-69
2022/04/27 04:40:45;;;;;;;29.08;19.15;;;5.80;83.80;;;;;;5088742;28;20460;-68
2022/04/27 04:43:11;;;;;;;20.23;15.45;;;5.90;83.30;;;;;;5094453;28;20048;-68
2022/04/27 04:45:37;;;;;;;18.33;13.27;;;6.00;82.80;;;;;;5076317;28;20020;-69
2022/04/27 04:48:02;;;;;;;16.48;12.85;;;6.00;84.10;;;;;;5090453;28;20032;-69
2022/04/27 04:50:29;;;;;;;19.30;14.82;;;5.90;84.50;;;;;;5089654;28;20023;-69
2022/04/27 04:52:55;;;;;;;18.98;14.40;;;5.90;85.30;;;;;;5091479;28;20099;-69
2022/04/27 04:55:21;;;;;;;25.17;17.30;;;5.90;85.50;;;;;;5085667;28;20150;-68
2022/04/27 04:57:46;;;;;;;20.92;15.23;;;5.90;86.00;;;;;;5093250;28;20441;-69
2022/04/27 05:00:12;;;;;;;28.52;18.33;;;6.00;85.80;;;;;;5095363;28;20051;-69
2022/04/27 05:02:38;;;;;;;19.27;14.10;;;6.00;86.10;;;;;;5090819;28;20200;-68
2022/04/27 05:05:04;;;;;;;21.48;15.07;;;6.10;85.50;;;;;;5091821;28;20060;-68
2022/04/27 05:07:31;;;;;;;18.23;14.13;;;6.20;85.90;;;;;;5072074;28;20032;-68
2022/04/27 05:09:57;;;;;;;22.58;15.88;;;6.40;86.50;;;;;;5087653;28;20038;-68
2022/04/27 05:12:23;;;;;;;17.90;12.32;;;6.30;88.10;;;;;;5091898;28;20043;-68
2022/04/27 05:14:50;;;;;;;19.23;14.65;;;6.20;89.30;;;;;;5095971;28;20480;-69
2022/04/27 05:17:15;;;;;;;18.67;13.70;;;6.00;90.30;;;;;;5095627;28;20031;-68
2022/04/27 05:19:41;;;;;;;21.45;15.07;;;6.00;90.30;;;;;;5096410;28;20023;-68
2022/04/27 05:22:07;;;;;;;18.77;14.30;;;6.00;89.70;;;;;;5096118;28;20081;-69
2022/04/27 05:24:33;;;;;;;17.60;13.65;;;6.10;89.70;;;;;;5094076;28;20082;-68
2022/04/27 05:26:58;;;;;;;17.73;13.30;;;6.20;89.70;;;;;;5088316;28;20052;-68
2022/04/27 05:32:10;;;;;;;12.23;10.07;;;6.60;90.90;;;;;;5089401;28;20038;-69
2022/04/27 05:34:36;;;;;;;12.35;10.52;;;7.00;91.00;;;;;;5091968;28;20062;-69
2022/04/27 05:37:02;;;;;;;13.20;10.48;;;7.40;92.90;;;;;;5092553;28;20028;-68
2022/04/27 05:39:29;;;;;;;17.75;12.32;;;7.60;96.00;;;;;;5088328;28;20031;-69
2022/04/27 05:41:55;;;;;;;13.90;10.68;;;7.60;97.50;;;;;;5092644;28;20020;-68
2022/04/27 05:44:23;;;;;;;13.90;10.75;;;7.50;97.00;;;;;;5088981;28;20031;-69
2022/04/27 05:46:50;;;;;;;15.27;12.25;;;7.40;97.50;;;;;;5089117;28;20035;-68
2022/04/27 05:49:16;;;;;;;13.70;10.98;;;7.40;97.50;;;;;;5091372;28;20024;-68
2022/04/27 05:51:42;;;;;;;15.55;10.52;;;7.30;98.00;;;;;;5086955;28;20107;-68
2022/04/27 05:54:07;;;;;;;14.82;11.68;;;7.40;98.00;;;;;;5087923;28;20086;-68
2022/04/27 05:56:33;;;;;;;15.15;11.52;;;7.30;98.00;;;;;;5092757;28;20028;-69
2022/04/27 05:59:01;;;;;;;16.63;11.50;;;7.30;98.00;;;;;;5093668;28;20448;-68
2022/04/27 06:01:27;;;;;;;16.63;12.48;;;7.30;97.90;;;;;;5091874;28;20032;-69
2022/04/27 06:03:53;;;;;;;14.45;11.32;;;7.40;97.70;;;;;;5076544;28;20024;-69
2022/04/27 06:06:20;;;;;;;15.20;11.55;;;7.50;97.60;;;;;;5093826;28;20051;-68
2022/04/27 06:08:45;;;;;;;15.38;11.38;;;7.70;98.00;;;;;;5074797;28;20033;-68
2022/04/27 06:11:11;;;;;;;14.80;11.95;;;8.00;98.00;;;;;;5091882;28;20293;-69
2022/04/27 06:13:37;;;;;;;14.85;11.15;;;8.20;98.00;;;;;;5094248;28;20039;-68
2022/04/27 06:16:02;;;;;;;18.45;13.68;;;8.30;98.00;;;;;;5096753;28;20070;-69
2022/04/27 06:18:28;;;;;;;17.27;13.43;;;8.20;98.00;;;;;;5073480;28;20439;-68
2022/04/27 06:20:54;;;;;;;14.82;11.55;;;8.20;98.00;;;;;;5094959;28;20081;-68
2022/04/27 06:23:19;;;;;;;15.68;12.07;;;8.20;98.00;;;;;;5096792;28;20020;-68
2022/04/27 06:25:49;;;;;;;18.58;14.32;;;8.00;98.00;;;;;;5094922;28;20086;-68
2022/04/27 06:28:16;;;;;;;21.20;15.45;;;7.90;98.00;;;;;;5095259;28;20539;-68
2022/04/27 06:30:42;;;;;;;15.52;11.45;;;7.80;98.00;;;;;;5091990;28;20055;-69
2022/04/27 06:33:07;;;;;;;17.00;12.85;;;7.90;98.00;;;;;;5093719;28;20058;-68
2022/04/27 06:35:33;;;;;;;18.10;14.00;;;7.80;98.00;;;;;;5093870;28;20032;-68
2022/04/27 06:37:59;;;;;;;15.70;12.52;;;7.80;98.00;;;;;;5096411;28;20106;-68
2022/04/27 06:40:25;;;;;;;17.95;13.23;;;7.70;98.00;;;;;;5093108;28;20043;-68
2022/04/27 06:42:51;;;;;;;20.02;14.95;;;7.70;98.00;;;;;;5091662;28;20027;-68
2022/04/27 06:45:17;;;;;;;16.83;13.30;;;7.70;98.00;;;;;;5077177;28;20032;-68
2022/04/27 06:47:43;;;;;;;17.77;13.10;;;7.80;98.00;;;;;;5091859;28;20024;-67
2022/04/27 06:50:12;;;;;;;18.88;14.15;;;7.90;98.00;;;;;;5076356;28;20059;-67
2022/04/27 06:52:42;;;;;;;16.33;12.38;;;8.00;98.00;;;;;;5093621;28;20046;-68
2022/04/27 06:55:11;;;;;;;18.70;13.48;;;8.10;98.00;;;;;;5095632;28;20035;-66
2022/04/27 06:57:37;;;;;;;22.15;14.55;;;8.30;98.00;;;;;;5094051;28;20433;-67
2022/04/27 07:00:04;;;;;;;16.27;12.77;;;8.30;98.00;;;;;;5091440;28;20126;-67
2022/04/27 07:02:30;;;;;;;15.15;10.73;;;8.50;98.00;;;;;;5091756;28;20420;-67
2022/04/27 07:05:01;;;;;;;16.60;11.40;;;8.60;98.00;;;;;;5094705;28;20042;-69
2022/04/27 07:07:30;;;;;;;13.73;10.13;;;8.80;98.00;;;;;;5074937;28;20337;-69
2022/04/27 07:09:56;;;;;;;12.52;9.63;;;9.10;98.00;;;;;;5095782;28;20024;-68
2022/04/27 07:12:22;;;;;;;10.93;8.13;;;9.30;98.00;;;;;;5095182;28;20024;-69
2022/04/27 07:14:48;;;;;;;12.00;8.73;;;9.50;98.00;;;;;;5077234;28;20367;-68
2022/04/27 07:17:17;;;;;;;11.55;9.02;;;9.60;97.60;;;;;;5094749;28;20028;-69
2022/04/27 07:19:43;;;;;;;11.93;9.23;;;9.30;97.40;;;;;;5095375;28;20028;-68
2022/04/27 07:22:10;;;;;;;13.40;10.57;;;9.30;98.00;;;;;;5093702;28;20039;-68
2022/04/27 07:24:37;;;;;;;13.40;10.25;;;9.30;98.00;;;;;;5091581;28;20058;-68
2022/04/27 07:27:03;;;;;;;12.95;10.57;;;9.30;98.00;;;;;;5090631;28;20316;-68
2022/04/27 07:29:29;;;;;;;13.82;11.25;;;9.30;98.00;;;;;;5095002;28;20055;-68
2022/04/27 07:31:55;;;;;;;13.18;10.15;;;9.30;98.00;;;;;;5087080;28;20032;-68
2022/04/27 07:34:20;;;;;;;12.98;9.77;;;9.40;98.00;;;;;;5080338;28;20418;-68
2022/04/27 07:36:46;;;;;;;11.02;8.63;;;9.60;98.00;;;;;;5083521;28;20031;-68
2022/04/27 07:39:12;;;;;;;11.40;8.68;;;9.90;98.00;;;;;;5090364;28;20024;-67
2022/04/27 07:41:37;;;;;;;11.73;9.65;;;10.20;97.00;;;;;;5095198;28;20028;-68
2022/04/27 07:44:03;;;;;;;12.75;9.98;;;10.40;97.20;;;;;;5078004;28;20024;-68
2022/04/27 07:46:29;;;;;;;13.48;10.20;;;10.50;97.30;;;;;;5092169;28;20362;-68
2022/04/27 07:48:55;;;;;;;12.45;9.90;;;10.50;96.60;;;;;;5094877;28;20347;-69
2022/04/27 07:51:21;;;;;;;11.05;8.50;;;10.90;96.50;;;;;;5076227;28;20024;-68
2022/04/27 07:53:47;;;;;;;11.10;8.23;;;11.30;94.50;;;;;;5092333;28;20473;-68
2022/04/27 07:56:13;;;;;;;12.77;9.55;;;12.00;93.40;;;;;;5093152;28;20317;-68
2022/04/27 07:58:39;;;;;;;10.05;7.90;;;12.60;90.70;;;;;;5093579;28;20550;-68
2022/04/27 08:01:09;;;;;;;11.00;8.63;;;13.20;89.20;;;;;;5069186;28;20036;-68
2022/04/27 08:03:35;;;;;;;9.73;7.53;;;13.90;88.50;;;;;;5097936;28;20405;-68
2022/04/27 08:06:04;;;;;;;9.05;7.15;;;14.30;86.40;;;;;;5077161;28;20035;-69
2022/04/27 08:08:30;;;;;;;10.57;8.48;;;13.90;84.40;;;;;;5094535;28;20028;-69
2022/04/27 08:10:56;;;;;;;12.05;8.45;;;13.10;85.50;;;;;;5094783;28;20316;-68
2022/04/27 08:13:22;;;;;;;12.35;9.13;;;12.60;87.10;;;;;;5094739;28;20103;-68
2022/04/27 08:15:48;;;;;;;10.55;8.13;;;12.30;88.50;;;;;;5095292;28;20118;-68
2022/04/27 08:18:14;;;;;;;12.02;9.57;;;12.00;89.30;;;;;;5093879;28;20028;-68
2022/04/27 08:23:31;;;;;;;11.32;8.73;;;12.10;90.00;;;;;;5095004;28;20085;-68
2022/04/27 08:25:59;;;;;;;11.90;8.98;;;12.30;90.00;;;;;;5094568;28;20405;-68
2022/04/27 08:28:25;;;;;;;11.77;9.35;;;12.80;88.00;;;;;;5093825;28;20040;-68
2022/04/27 08:30:54;;;;;;;13.30;9.45;;;13.00;86.40;;;;;;5093052;28;20333;-68
2022/04/27 08:33:21;;;;;;;11.23;8.82;;;12.70;86.80;;;;;;5094570;28;20040;-68
2022/04/27 08:35:47;;;;;;;13.40;10.07;;;12.50;88.50;;;;;;5089426;28;20025;-68
2022/04/27 08:38:13;;;;;;;12.48;10.20;;;12.10;88.30;;;;;;5074316;28;20367;-68
2022/04/27 08:40:44;;;;;;;11.38;8.93;;;12.00;89.30;;;;;;5073442;28;20028;-68
2022/04/27 08:43:11;;;;;;;11.77;9.00;;;12.00;88.30;;;;;;5075349;28;20025;-67
2022/04/27 08:45:41;;;;;;;12.45;8.68;;;11.70;90.80;;;;;;5074469;28;20025;-68
2022/04/27 08:48:08;;;;;;;11.43;8.75;;;12.00;88.10;;;;;;5069831;28;20364;-68
2022/04/27 08:50:34;;;;;;;11.38;8.48;;;12.80;89.10;;;;;;5074995;28;20025;-68
2022/04/27 08:53:00;;;;;;;8.77;6.63;;;13.70;84.70;;;;;;5078169;28;20059;-69
2022/04/27 08:55:29;;;;;;;8.27;5.65;;;15.20;80.30;;;;;;5078163;28;20433;-69
2022/04/27 08:58:16;;;;;;;7.18;5.20;;;16.40;76.70;;;;;;5077704;28;20421;-68
2022/04/27 09:00:43;;;;;;;9.27;5.57;;;16.80;74.60;;;;;;5077463;28;20028;-68
2022/04/27 09:03:30;;;;;;;7.40;5.55;;;16.10;75.90;;;;;;5077023;28;20140;-68
2022/04/27 09:06:04;;;;;;;8.00;5.65;;;16.80;73.50;;;;;;5077971;28;20052;-68
2022/04/27 09:08:45;;;;;;;;;;;16.40;74.50;;;;;;5074906;28;20387;-69
2022/04/27 09:11:15;;;;;;;8.48;5.90;;;15.40;75.90;;;;;;5072316;28;19954;-68
2022/04/27 09:13:49;;;;;;;6.47;4.75;;;16.10;77.50;;;;;;5078192;28;20021;-68
2022/04/27 09:16:15;;;;;;;6.65;4.72;;;17.40;72.10;;;;;;5078072;28;20028;-67
2022/04/27 09:21:55;;;;;;;6.57;4.82;;;16.50;73.20;;;;;;5077735;28;20051;-68
2022/04/27 09:24:21;;;;;;;5.25;3.47;;;16.60;73.30;;;;;;5075067;28;20535;-68
2022/04/27 09:27:18;;;;;;;4.90;3.30;;;17.50;71.80;;;;;;5076227;28;20031;-67
2022/04/27 09:29:58;;;;;;;5.78;4.13;;;17.70;68.20;;;;;;5066310;28;20025;-68
2022/04/27 09:32:25;;;;;;;6.32;3.80;;;18.10;68.50;;;;;;5073332;28;20017;-67
2022/04/27 09:34:50;;;;;;;6.75;4.05;;;17.00;71.10;;;;;;5076429;28;20047;-68
2022/04/27 09:37:27;;;;;;;6.38;3.75;;;16.60;71.00;;;;;;5077955;28;20036;-68
2022/04/27 09:40:11;;;;;;;5.13;3.10;;;16.20;70.70;;;;;;5071421;28;20021;-67
2022/04/27 09:42:41;;;;;;;6.40;4.25;;;15.40;74.00;;;;;;5072314;28;20432;-67
2022/04/27 09:45:33;;;;;;;5.88;4.20;;;15.10;74.60;;;;;;5077202;28;20338;-67
2022/04/27 09:48:02;;;;;;;6.07;4.38;;;15.20;74.70;;;;;;5068429;28;20437;-66
2022/04/27 09:50:55;;;;;;;5.72;3.95;;;16.00;73.90;;;;;;5076612;28;20029;-67
2022/04/27 09:53:21;;;;;;;5.05;3.35;;;18.30;71.20;;;;;;5074496;28;20428;-66
2022/04/27 09:55:54;;;;;;;5.72;3.40;;;19.40;66.70;;;;;;5076993;28;20024;-67
2022/04/27 09:58:20;;;;;;;5.93;4.40;;;18.50;65.50;;;;;;5076841;28;20033;-68
2022/04/27 10:00:48;;;;;;;6.32;3.75;;;17.50;67.90;;;;;;5058393;28;20035;-68
2022/04/27 10:03:16;;;;;;;5.75;3.97;;;16.80;68.70;;;;;;5073963;28;20123;-67
2022/04/27 10:05:43;;;;;;;5.95;3.90;;;15.90;71.00;;;;;;5077688;28;20107;-69
2022/04/27 10:08:10;;;;;;;5.50;3.22;;;15.00;73.80;;;;;;5073152;28;20020;-67
2022/04/27 10:10:41;;;;;;;5.20;3.42;;;14.80;73.20;;;;;;5075629;28;20098;-68
2022/04/27 10:13:11;;;;;;;5.53;3.40;;;14.60;75.60;;;;;;5069709;28;20029;-68
2022/04/27 10:15:44;;;;;;;5.60;3.47;;;14.50;76.20;;;;;;5072752;28;20032;-66
2022/04/27 10:18:20;;;;;;;4.53;2.70;;;14.40;74.30;;;;;;5069562;28;20021;-67
2022/04/27 10:20:51;;;;;;;4.28;2.75;;;14.50;74.40;;;;;;5075078;28;20029;-67
2022/04/27 10:23:27;;;;;;;4.95;2.90;;;14.40;73.70;;;;;;5074971;28;20024;-66
2022/04/27 10:26:12;;;;;;;5.20;3.13;;;14.20;72.90;;;;;;5074811;28;20146;-68
2022/04/27 10:28:46;;;;;;;4.90;3.22;;;13.80;76.40;;;;;;5065223;28;20028;-67
2022/04/27 10:31:12;;;;;;;;;;;13.00;78.40;;;;;;5075839;28;20051;-67
2022/04/27 10:33:51;;;;;;;6.93;4.40;;;13.00;79.50;;;;;;5071364;28;19944;-67
2022/04/27 10:36:40;;;;;;;6.60;4.57;;;13.00;80.60;;;;;;5040176;28;20398;-67
2022/04/27 10:39:11;;;;;;;6.30;4.22;;;13.30;79.30;;;;;;5065841;28;20028;-67
2022/04/27 10:42:03;;;;;;;8.48;5.72;;;13.50;80.20;;;;;;5070554;28;20356;-67
2022/04/27 10:44:47;;;;;;;7.10;5.15;;;13.40;78.90;;;;;;5054971;28;20158;-67
2022/04/27 10:47:15;;;;;;;6.07;4.22;;;13.30;80.30;;;;;;5056575;28;20039;-67
2022/04/27 10:49:41;;;;;;;5.57;3.97;;;13.20;80.20;;;;;;5073833;28;20299;-67
2022/04/27 10:52:08;;;;;;;7.03;4.60;;;13.20;79.60;;;;;;5070214;28;20023;-67
2022/04/27 10:54:39;;;;;;;8.38;4.53;;;13.10;81.10;;;;;;5065543;28;20482;-67
2022/04/27 10:57:14;;;;;;;6.00;4.10;;;13.30;80.00;;;;;;5075816;28;20043;-67
2022/04/27 10:59:56;;;;;;;7.07;4.72;;;13.50;79.70;;;;;;5070912;28;20445;-67
2022/04/27 11:02:44;;;;;;;10.77;6.80;;;13.60;80.50;;;;;;5058034;28;20060;-67
2022/04/27 11:05:13;;;;;;;8.00;5.63;;;13.70;81.30;;;;;;5073103;28;20125;-67
2022/04/27 11:08:15;;;;;;;8.38;5.40;;;13.40;80.00;;;;;;5074271;28;20434;-67
2022/04/27 11:10:42;;;;;;;7.90;5.10;;;12.90;81.00;;;;;;5067263;28;20036;-67
2022/04/27 11:13:08;;;;;;;9.70;5.57;;;12.80;82.00;;;;;;5073448;28;20024;-67
2022/04/27 11:15:34;;;;;;;7.00;4.82;;;12.80;80.70;;;;;;5068771;28;20093;-65
2022/04/27 11:18:02;;;;;;;9.15;4.57;;;13.00;81.70;;;;;;5063020;28;20095;-68
2022/04/27 11:20:37;;;;;;;6.95;4.97;;;13.30;81.10;;;;;;5060295;28;20084;-67
2022/04/27 11:23:08;;;;;;;5.97;4.00;;;13.40;80.70;;;;;;5063563;28;20422;-67
2022/04/27 11:25:37;;;;;;;6.55;4.60;;;14.10;79.60;;;;;;5055526;28;20029;-67
2022/04/27 11:28:06;;;;;;;6.78;4.50;;;14.20;76.60;;;;;;5065741;28;20040;-67
2022/04/27 11:30:32;;;;;;;7.05;4.80;;;13.60;78.20;;;;;;5063715;28;20075;-68
2022/04/27 11:33:00;;;;;;;6.20;4.15;;;13.30;80.40;;;;;;5060726;28;20434;-67
2022/04/27 11:35:47;;;;;;;6.57;4.10;;;12.90;81.50;;;;;;5057099;28;20032;-66
2022/04/27 11:38:18;;;;;;;6.50;4.70;;;12.80;83.20;;;;;;5057482;28;20426;-67
2022/04/27 11:40:44;;;;;;;6.50;4.38;;;12.70;82.20;;;;;;5059614;28;20056;-67
2022/04/27 11:43:10;;;;;;;5.75;3.80;;;12.70;83.10;;;;;;5070034;28;20067;-68
2022/04/27 11:45:36;;;;;;;6.75;4.25;;;12.70;83.30;;;;;;5064264;28;20413;-67
2022/04/27 11:48:03;;;;;;;8.25;5.50;;;12.80;81.70;;;;;;5064019;28;20016;-67
2022/04/27 11:50:34;;;;;;;9.38;5.70;;;12.90;82.20;;;;;;5056482;28;20149;-67
2022/04/27 11:53:03;;;;;;;6.60;4.50;;;12.80;82.50;;;;;;5073615;28;20020;-68
2022/04/27 11:55:31;;;;;;;6.55;4.32;;;12.80;80.70;;;;;;5074542;28;20016;-67
2022/04/27 11:57:57;;;;;;;7.00;4.80;;;12.90;82.30;;;;;;5069577;28;20020;-67
2022/04/27 12:00:26;;;;;;;7.00;4.70;;;12.80;82.30;;;;;;5062696;28;20032;-67
2022/04/27 12:03:05;;;;;;;7.05;5.13;;;12.70;83.60;;;;;;5070121;28;20428;-67
2022/04/27 12:05:33;;;;;;;9.57;5.78;;;12.40;82.60;;;;;;5066573;28;20056;-66
2022/04/27 12:08:03;;;;;;;7.95;5.47;;;12.10;84.50;;;;;;5060269;28;20634;-67
2022/04/27 12:10:29;;;;;;;7.97;5.72;;;12.00;83.90;;;;;;5067219;28;20082;-67
2022/04/27 12:12:59;;;;;;;7.93;5.50;;;12.00;84.70;;;;;;5043645;28;20429;-66
2022/04/27 12:15:26;;;;;;;9.40;5.70;;;12.20;84.50;;;;;;5065210;28;20021;-67
2022/04/27 12:17:56;;;;;;;7.60;5.30;;;12.20;84.80;;;;;;5074199;28;20016;-67
2022/04/27 12:20:42;;;;;;;10.00;6.32;;;12.40;84.30;;;;;;5075728;28;20028;-67
2022/04/27 12:23:30;;;;;;;9.07;5.70;;;12.80;83.10;;;;;;5067378;28;20073;-67
2022/04/27 12:26:00;;;;;;;7.72;5.32;;;13.10;83.20;;;;;;5076098;28;20099;-66
2022/04/27 12:28:41;;;;;;;8.52;5.78;;;13.60;81.10;;;;;;5079410;28;20107;-68
2022/04/27 12:31:09;;;;;;;8.20;5.50;;;13.90;81.30;;;;;;5061687;28;20024;-67
2022/04/27 12:33:43;;;;;;;7.90;6.22;;;14.10;78.90;;;;;;5076365;28;20406;-68
2022/04/27 12:39:06;;;;;;;8.43;5.93;;;14.20;80.70;;;;;;5078539;28;20023;-66
2022/04/27 12:41:33;;;;;;;8.18;5.80;;;14.10;80.40;;;;;;5078682;28;20028;-67
2022/04/27 12:44:13;;;;;;;8.95;6.38;;;14.20;79.60;;;;;;5078781;28;20090;-67
2022/04/27 12:47:01;;;;;;;8.52;5.35;;;14.50;79.20;;;;;;5077792;28;20033;-67
2022/04/27 12:49:39;;;;;;;7.32;4.97;;;14.90;78.20;;;;;;5059508;28;20422;-66
2022/04/27 12:52:33;;;;;;;7.05;4.50;;;15.20;78.20;;;;;;5078124;28;20029;-67
2022/04/27 12:55:11;;;;;;;6.95;4.63;;;15.50;75.20;;;;;;5076663;28;20028;-67
2022/04/27 12:57:47;;;;;;;5.85;4.05;;;15.50;76.30;;;;;;4991492;28;20020;-68
2022/04/27 13:00:14;;;;;;;6.15;4.05;;;16.30;75.40;;;;;;5077929;28;20043;-68
2022/04/27 13:02:40;;;;;;;7.55;3.65;;;17.30;73.60;;;;;;5077689;28;20449;-68
2022/04/27 13:05:08;;;;;;;6.05;4.40;;;18.10;69.10;;;;;;5075086;28;20117;-67
2022/04/27 13:07:34;;;;;;;6.38;4.35;;;18.70;67.40;;;;;;5059633;28;20154;-68